Time;durP1;ratioP1;P1;durP2;ratioP2;P2;SDS_P1;SDS_P2;PMS_P1;PMS_P2;Temp;Humidity;BMP_temperature;BMP_pressure;BME280_temperature;BME280_humidity;BME280_pressure;Samples;Min_cycle;Max_cycle;Signal;HPM_P1;HPM_P2
2022/04/23 00:01:49;;;;;;;11.07;5.30;;;;;;;10.27;71.12;95637.94;4977911;28;20511;-66
2022/04/23 00:04:14;;;;;;;7.18;4.85;;;;;;;10.32;71.06;95643.75;4995194;28;20109;-65
2022/04/23 00:06:40;;;;;;;5.28;4.13;;;;;;;10.35;69.75;95642.75;4995146;28;20038;-66
2022/04/23 00:09:06;;;;;;;5.85;3.92;;;;;;;10.23;69.09;95642.47;4995061;28;20078;-65
2022/04/23 00:11:32;;;;;;;6.15;4.10;;;;;;;10.17;69.46;95650.63;4995121;28;20026;-65
2022/04/23 00:13:58;;;;;;;7.20;4.85;;;;;;;10.08;70.44;95654.53;4995024;28;20366;-63
2022/04/23 00:16:25;;;;;;;8.05;5.13;;;;;;;9.95;70.25;95645.63;4994953;28;20022;-64
2022/04/23 00:18:53;;;;;;;13.35;4.35;;;;;;;9.88;71.03;95652.06;4995063;28;20026;-66
2022/04/23 00:21:19;;;;;;;9.45;4.63;;;;;;;9.78;70.30;95657.75;4994838;28;20029;-66
2022/04/23 00:23:47;;;;;;;6.85;5.45;;;;;;;9.72;71.99;95645.84;4994747;28;20022;-64
2022/04/23 00:26:13;;;;;;;8.60;4.25;;;;;;;9.78;71.61;95643.88;4994715;28;20161;-62
2022/04/23 00:28:38;;;;;;;5.10;4.20;;;;;;;9.76;71.17;95638.72;4994734;28;20105;-65
2022/04/23 00:31:05;;;;;;;9.85;4.72;;;;;;;9.66;71.54;95627.03;4993772;28;20525;-66
2022/04/23 00:33:32;;;;;;;5.00;4.20;;;;;;;9.55;71.39;95628.41;4994602;28;20075;-64
2022/04/23 00:35:58;;;;;;;8.98;5.40;;;;;;;9.51;72.31;95626.00;4977089;28;20377;-64
2022/04/23 00:38:24;;;;;;;5.25;4.75;;;;;;;9.48;71.40;95620.00;4994448;28;20032;-63
2022/04/23 00:40:50;;;;;;;7.25;4.78;;;;;;;9.38;72.40;95623.97;4994331;28;20043;-65
2022/04/23 00:43:27;;;;;;;8.70;5.20;;;;;;;9.38;72.06;95618.75;4994374;28;20027;-65
2022/04/23 00:45:53;;;;;;;7.22;5.10;;;;;;;9.33;72.41;95610.31;4994474;28;20022;-64
2022/04/23 00:48:19;;;;;;;9.00;5.38;;;;;;;9.29;72.89;95617.44;4994523;28;20057;-66
2022/04/23 00:50:45;;;;;;;6.75;4.80;;;;;;;9.28;73.34;95617.50;4994286;28;20027;-63
2022/04/23 00:53:11;;;;;;;7.03;4.88;;;;;;;9.27;72.08;95613.22;4994250;28;20104;-66
2022/04/23 00:55:37;;;;;;;7.55;5.15;;;;;;;9.19;72.35;95631.84;4994130;28;20106;-65
2022/04/23 00:58:03;;;;;;;6.30;4.35;;;;;;;9.22;71.95;95631.69;4994134;28;20109;-63
2022/04/23 01:00:29;;;;;;;8.00;5.07;;;;;;;9.13;72.89;95632.13;4994210;28;20421;-65
2022/04/23 01:02:55;;;;;;;6.97;4.93;;;;;;;9.20;73.00;95630.91;4994125;28;20065;-63
2022/04/23 01:05:26;;;;;;;9.45;4.72;;;;;;;9.19;72.82;95631.84;4994111;28;20428;-63
2022/04/23 01:07:52;;;;;;;9.35;5.07;;;;;;;9.13;73.32;95630.38;4994082;28;20109;-65
2022/04/23 01:10:19;;;;;;;9.00;4.70;;;;;;;9.14;72.90;95631.19;4993991;28;20022;-63
2022/04/23 01:12:45;;;;;;;5.18;4.50;;;;;;;9.10;73.87;95636.53;4994023;28;20026;-65
2022/04/23 01:15:13;;;;;;;12.85;5.75;;;;;;;9.05;73.91;95624.66;4993916;28;20528;-63
2022/04/23 01:17:40;;;;;;;7.05;4.80;;;;;;;8.98;73.57;95621.47;4993819;28;20030;-65
2022/04/23 01:20:07;;;;;;;5.18;4.50;;;;;;;8.94;73.55;95622.56;4993778;28;20026;-63
2022/04/23 01:22:35;;;;;;;8.50;4.88;;;;;;;8.81;73.12;95606.59;4993887;28;20094;-65
2022/04/23 01:25:05;;;;;;;7.50;4.43;;;;;;;8.76;73.61;95625.06;4993971;28;20018;-64
2022/04/23 01:27:30;;;;;;;9.43;4.72;;;;;;;8.75;73.51;95617.31;4993774;28;20034;-64
2022/04/23 01:29:56;;;;;;;6.38;4.20;;;;;;;8.68;73.25;95621.97;4993698;28;20026;-66
2022/04/23 01:32:22;;;;;;;6.55;4.60;;;;;;;8.64;73.19;95621.25;4993698;28;20117;-66
2022/04/23 01:34:47;;;;;;;5.82;3.85;;;;;;;8.59;73.20;95612.81;4993698;28;20022;-62
2022/04/23 01:37:13;;;;;;;9.30;5.15;;;;;;;8.49;73.91;95617.53;4993625;28;20548;-65
2022/04/23 01:39:40;;;;;;;7.07;4.68;;;;;;;8.41;74.28;95612.69;4993429;28;20478;-65
2022/04/23 01:42:08;;;;;;;5.88;4.38;;;;;;;8.32;75.37;95607.88;4998129;28;20041;-65
2022/04/23 01:44:33;;;;;;;7.78;4.78;;;;;;;8.18;76.46;95613.66;5000057;28;20097;-65
2022/04/23 01:46:59;;;;;;;5.10;4.53;;;;;;;8.13;76.00;95608.66;5000158;28;20109;-65
2022/04/23 01:49:24;;;;;;;8.55;4.38;;;;;;;8.05;76.20;95603.81;5000119;28;20034;-63
2022/04/23 01:51:50;;;;;;;8.23;5.00;;;;;;;7.99;75.97;95608.41;4999970;28;20034;-66
2022/04/23 01:54:15;;;;;;;6.85;5.18;;;;;;;7.99;76.77;95617.06;4999947;28;20034;-63
2022/04/23 01:56:41;;;;;;;10.15;4.90;;;;;;;7.99;77.35;95611.88;4999979;28;20031;-63
2022/04/23 01:59:06;;;;;;;6.97;4.80;;;;;;;7.90;76.42;95613.09;5000028;28;20034;-64
2022/04/23 02:01:32;;;;;;;7.78;4.60;;;;;;;7.85;76.91;95609.84;5000066;28;20019;-65
2022/04/23 02:03:59;;;;;;;6.10;4.28;;;;;;;7.80;76.83;95617.84;4999997;28;20485;-65
2022/04/23 02:06:24;;;;;;;6.32;4.07;;;;;;;7.75;76.44;95618.94;4999974;28;20107;-65
2022/04/23 02:08:50;;;;;;;6.38;4.57;;;;;;;7.67;76.93;95608.84;4999934;28;20133;-66
2022/04/23 02:11:15;;;;;;;8.65;4.63;;;;;;;7.61;76.26;95609.94;4999925;28;20080;-65
2022/04/23 02:13:41;;;;;;;9.50;5.07;;;;;;;7.64;77.70;95614.16;4999935;28;20030;-63
2022/04/23 02:16:06;;;;;;;5.80;5.07;;;;;;;7.68;76.87;95616.59;4999814;28;20033;-64
2022/04/23 02:18:32;;;;;;;8.43;5.05;;;;;;;7.70;76.42;95613.91;4999778;28;20034;-64
2022/04/23 02:20:58;;;;;;;8.57;5.43;;;;;;;7.67;76.76;95621.84;4999824;28;20026;-65
2022/04/23 02:23:24;;;;;;;7.35;4.50;;;;;;;7.69;76.40;95633.06;4999874;28;20030;-63
2022/04/23 02:25:49;;;;;;;7.43;4.43;;;;;;;7.77;76.19;95630.16;4999780;28;20045;-62
2022/04/23 02:28:15;;;;;;;7.40;4.72;;;;;;;7.72;75.68;95635.53;4999665;28;20041;-62
2022/04/23 02:30:41;;;;;;;8.35;4.80;;;;;;;7.73;75.56;95639.00;4999696;28;20026;-63
2022/04/23 02:33:07;;;;;;;6.05;4.35;;;;;;;7.67;75.34;95632.25;4999686;28;20026;-62
2022/04/23 02:35:36;;;;;;;7.43;4.80;;;;;;;7.62;75.69;95629.03;4999637;28;20025;-63
2022/04/23 02:38:02;;;;;;;9.55;5.53;;;;;;;7.56;75.63;95630.13;4999570;28;20038;-64
2022/04/23 02:40:28;;;;;;;6.15;5.03;;;;;;;7.54;76.21;95631.94;4999362;28;20034;-62
2022/04/23 02:42:55;;;;;;;7.82;5.55;;;;;;;7.51;75.82;95624.25;4999595;28;20019;-66
2022/04/23 02:45:21;;;;;;;11.63;5.40;;;;;;;7.51;75.79;95624.25;4999550;28;20027;-63
2022/04/23 02:47:56;;;;;;;9.38;5.00;;;;;;;7.47;74.92;95623.53;4999608;28;20030;-62
2022/04/23 02:50:25;;;;;;;6.15;4.78;;;;;;;7.37;75.07;95625.63;4999466;28;20034;-62
2022/04/23 02:52:51;;;;;;;9.18;5.53;;;;;;;7.26;75.41;95625.22;4997225;28;20034;-63
2022/04/23 02:55:16;;;;;;;7.00;4.93;;;;;;;7.12;76.72;95624.03;4996435;28;20026;-65
2022/04/23 02:57:42;;;;;;;6.85;5.63;;;;;;;7.13;77.29;95614.47;4996297;28;20030;-65
2022/04/23 03:00:10;;;;;;;8.25;5.85;;;;;;;7.18;77.59;95615.13;4996411;28;20054;-63
2022/04/23 03:02:37;;;;;;;9.57;6.00;;;;;;;7.25;78.51;95621.78;4996366;28;20388;-63
2022/04/23 03:05:08;;;;;;;9.07;5.47;;;;;;;7.34;78.34;95628.38;4996298;28;20528;-63
2022/04/23 03:07:35;;;;;;;10.93;5.65;;;;;;;7.38;76.92;95626.50;4996317;28;20117;-63
2022/04/23 03:10:05;;;;;;;9.43;5.13;;;;;;;7.27;75.60;95616.50;4996046;28;20030;-64
2022/04/23 03:12:31;;;;;;;8.38;5.53;;;;;;;7.16;75.84;95622.13;4996218;28;20105;-64
2022/04/23 03:14:57;;;;;;;9.90;5.90;;;;;;;7.15;76.46;95630.84;4996086;28;20114;-61
2022/04/23 03:17:23;;;;;;;8.13;6.40;;;;;;;7.13;76.63;95641.31;4995922;28;20412;-63
2022/04/23 03:19:48;;;;;;;10.77;6.22;;;;;;;7.12;76.75;95639.63;4996023;28;20034;-64
2022/04/23 03:22:15;;;;;;;12.75;6.97;;;;;;;6.95;77.57;95641.13;4996053;28;20088;-65
2022/04/23 03:24:40;;;;;;;11.65;7.60;;;;;;;6.99;78.83;95644.47;4996013;28;20023;-62
2022/04/23 03:27:06;;;;;;;14.55;7.53;;;;;;;7.06;79.35;95647.66;4995789;28;20029;-64
2022/04/23 03:29:33;;;;;;;11.05;6.90;;;;;;;7.06;78.60;95638.13;4995775;28;20102;-64
2022/04/23 03:31:59;;;;;;;8.77;5.95;;;;;;;7.05;77.44;95635.56;4995844;28;20374;-60
2022/04/23 03:34:24;;;;;;;9.52;6.50;;;;;;;7.06;77.25;95626.84;4995776;28;20021;-65
2022/04/23 03:36:50;;;;;;;10.18;6.82;;;;;;;7.07;76.75;95625.94;4995691;28;20030;-62
2022/04/23 03:39:16;;;;;;;12.10;7.53;;;;;;;7.11;77.03;95634.47;4995409;28;20031;-62
2022/04/23 03:41:41;;;;;;;7.40;5.90;;;;;;;7.05;77.08;95638.16;4995759;28;20068;-66
2022/04/23 03:44:07;;;;;;;8.45;6.28;;;;;;;6.96;77.46;95639.38;4995481;28;20046;-65
2022/04/23 03:46:33;;;;;;;9.85;6.45;;;;;;;6.96;77.65;95628.97;4995478;28;20034;-64
2022/04/23 03:48:58;;;;;;;10.63;7.55;;;;;;;6.90;78.50;95622.25;4995551;28;20022;-67
2022/04/23 03:51:24;;;;;;;9.07;7.25;;;;;;;6.90;78.54;95622.25;4995578;28;20053;-63
2022/04/23 03:53:50;;;;;;;8.20;6.28;;;;;;;7.01;78.31;95619.22;4995419;28;20101;-62
2022/04/23 03:56:16;;;;;;;10.38;7.50;;;;;;;6.95;78.16;95614.25;4995262;28;20030;-64
2022/04/23 03:58:43;;;;;;;13.20;8.18;;;;;;;7.01;80.27;95619.22;4995303;28;20053;-66
2022/04/23 04:01:08;;;;;;;9.40;7.82;;;;;;;7.18;81.03;95623.78;4995313;28;20030;-63
2022/04/23 04:03:34;;;;;;;9.15;6.53;;;;;;;7.36;79.02;95623.09;4995161;28;20049;-66
2022/04/23 04:06:01;;;;;;;9.70;5.72;;;;;;;7.54;77.56;95624.13;4994989;28;20030;-66
2022/04/23 04:08:26;;;;;;;15.52;6.03;;;;;;;7.70;77.88;95624.34;4995081;28;20026;-65
2022/04/23 04:10:52;;;;;;;9.32;5.90;;;;;;;8.05;77.23;95631.59;4995220;28;20026;-63
2022/04/23 04:13:18;;;;;;;10.70;5.55;;;;;;;8.42;76.24;95631.75;4977606;28;20456;-63
2022/04/23 04:15:45;;;;;;;9.10;5.60;;;;;;;8.81;75.29;95635.28;4995142;28;20105;-64
2022/04/23 04:18:12;;;;;;;8.75;5.30;;;;;;;9.19;74.21;95645.75;4994908;28;20027;-65
2022/04/23 04:20:39;;;;;;;5.32;4.70;;;;;;;9.60;72.80;95646.41;4994845;28;20026;-64
2022/04/23 04:23:06;;;;;;;5.63;5.00;;;;;;;10.00;71.11;95638.41;4994780;28;20023;-66
2022/04/23 04:25:32;;;;;;;6.68;4.95;;;;;;;10.39;69.66;95636.47;4994789;28;20424;-63
2022/04/23 04:28:01;;;;;;;6.05;4.90;;;;;;;10.81;69.07;95631.69;4994729;28;20121;-65
2022/04/23 04:31:46;;;;;;;5.95;4.35;;;;;;;11.22;67.73;95635.59;4994679;28;20386;-62
2022/04/23 04:33:13;;;;;;;9.15;5.13;;;;;;;11.73;66.05;95647.63;4994491;28;20053;-66
2022/04/23 04:35:38;;;;;;;5.40;3.97;;;;;;;12.11;64.87;95654.25;4994511;28;20480;-63
2022/04/23 04:38:04;;;;;;;9.02;3.85;;;;;;;12.47;62.84;95651.31;4994510;28;20117;-65
2022/04/23 04:40:30;;;;;;;7.82;3.80;;;;;;;12.76;62.00;95641.69;4994268;28;20472;-63
2022/04/23 04:42:55;;;;;;;7.50;4.55;;;;;;;13.11;61.40;95643.06;4994444;28;20022;-64
2022/04/23 04:45:22;;;;;;;9.15;4.78;;;;;;;13.44;61.31;95658.56;4994390;28;20034;-64
2022/04/23 04:47:47;;;;;;;9.00;3.65;;;;;;;13.77;60.66;95668.75;4994419;28;20080;-63
2022/04/23 04:50:13;;;;;;;4.47;4.07;;;;;;;14.14;60.05;95668.09;4994290;28;20024;-62
2022/04/23 04:52:40;;;;;;;5.60;4.13;;;;;;;14.48;57.88;95666.78;4994202;28;20022;-64
2022/04/23 04:55:06;;;;;;;8.45;4.63;;;;;;;14.77;58.09;95670.06;4994231;28;20033;-63
2022/04/23 04:57:32;;;;;;;6.43;3.90;;;;;;;15.07;57.18;95661.94;4994195;28;20548;-65
2022/04/23 04:59:57;;;;;;;5.70;3.50;;;;;;;15.38;56.11;95668.53;4994125;28;20354;-64
2022/04/23 05:02:23;;;;;;;5.22;4.22;;;;;;;15.56;55.74;95662.06;4994108;28;20042;-63
2022/04/23 05:04:49;;;;;;;9.02;5.75;;;;;;;15.34;55.99;95661.78;4994173;28;20064;-63
2022/04/23 05:07:14;;;;;;;12.77;6.00;;;;;;;14.89;57.33;95659.66;4994037;28;20066;-64
2022/04/23 05:09:40;;;;;;;9.95;5.32;;;;;;;14.72;58.96;95664.25;4994020;28;20038;-63
2022/04/23 05:12:06;;;;;;;13.68;5.72;;;;;;;14.83;57.95;95654.81;4994002;28;20080;-65
2022/04/23 05:14:32;;;;;;;8.52;5.53;;;;;;;14.87;57.45;95661.56;4976504;28;20031;-61
2022/04/23 05:16:58;;;;;;;8.05;5.80;;;;;;;14.95;58.06;95664.50;4993240;28;20036;-63
2022/04/23 05:19:23;;;;;;;8.48;5.72;;;;;;;15.10;57.49;95667.84;4993834;28;20081;-64
2022/04/23 05:21:50;;;;;;;14.35;6.07;;;;;;;15.49;55.65;95649.31;4993882;28;20085;-64
2022/04/23 05:24:16;;;;;;;6.85;5.35;;;;;;;15.97;54.64;95650.31;4993739;28;20109;-62
2022/04/23 05:26:42;;;;;;;8.77;4.82;;;;;;;16.64;53.94;95649.75;4993798;28;20476;-64
2022/04/23 05:29:08;;;;;;;8.35;4.60;;;;;;;17.26;52.21;95658.22;4993774;28;20025;-65
2022/04/23 05:31:33;;;;;;;16.52;5.32;;;;;;;17.66;51.18;95651.53;4993737;28;20033;-65
2022/04/23 05:34:00;;;;;;;5.05;3.78;;;;;;;18.10;50.53;95652.47;4993767;28;20026;-64
2022/04/23 05:36:25;;;;;;;8.05;4.20;;;;;;;18.61;47.75;95653.56;4976297;28;20447;-62
2022/04/23 05:38:51;;;;;;;13.00;4.07;;;;;;;19.15;46.38;95648.09;4993847;28;20035;-64
2022/04/23 05:41:17;;;;;;;6.57;4.03;;;;;;;19.54;46.24;95651.88;4992853;28;20169;-61
2022/04/23 05:43:43;;;;;;;7.90;4.55;;;;;;;19.62;48.08;95649.38;4992740;28;20492;-63
2022/04/23 05:46:09;;;;;;;8.55;5.25;;;;;;;19.41;47.24;95650.31;4992825;28;20485;-62
2022/04/23 05:48:37;;;;;;;10.48;5.18;;;;;;;19.52;46.95;95649.34;4992825;28;20022;-64
2022/04/23 05:51:02;;;;;;;5.75;4.65;;;;;;;19.95;47.07;95649.97;4992726;28;20030;-64
2022/04/23 05:53:29;;;;;;;8.30;4.50;;;;;;;20.35;45.69;95652.66;4992572;28;20022;-62
2022/04/23 05:55:56;;;;;;;8.02;4.53;;;;;;;20.37;45.44;95650.69;4992786;28;20031;-63
2022/04/23 05:58:23;;;;;;;8.18;4.15;;;;;;;20.77;45.03;95642.66;4992643;28;20034;-61
2022/04/23 06:00:51;;;;;;;9.90;4.68;;;;;;;21.21;43.66;95642.94;4992675;28;20032;-64
2022/04/23 06:03:17;;;;;;;7.10;5.32;;;;;;;21.56;42.96;95634.38;4992562;28;20030;-64
2022/04/23 06:05:46;;;;;;;7.93;5.07;;;;;;;21.82;42.30;95638.97;4992572;28;20480;-64
2022/04/23 06:08:13;;;;;;;7.65;4.47;;;;;;;22.11;41.88;95642.41;4992504;28;20030;-64
2022/04/23 06:10:38;;;;;;;7.28;4.28;;;;;;;22.15;41.24;95641.16;4992568;28;20101;-64
2022/04/23 06:13:07;;;;;;;5.65;3.65;;;;;;;22.05;39.87;95638.53;4975042;28;20110;-62
2022/04/23 06:15:33;;;;;;;5.00;3.33;;;;;;;22.31;40.71;95635.13;4992451;28;20034;-61
2022/04/23 06:17:59;;;;;;;8.80;3.40;;;;;;;22.47;37.12;95643.25;4992501;28;20060;-64
2022/04/23 06:20:25;;;;;;;6.07;2.20;;;;;;;22.26;35.33;95642.72;4992452;28;20031;-63
2022/04/23 06:22:51;;;;;;;5.10;2.50;;;;;;;22.06;35.85;95646.38;4992372;28;20027;-64
2022/04/23 06:25:17;;;;;;;3.90;2.20;;;;;;;21.59;35.37;95653.50;4992360;28;20034;-63
2022/04/23 06:27:42;;;;;;;3.63;2.58;;;;;;;21.17;36.44;95649.56;4992359;28;20045;-62
2022/04/23 06:30:09;;;;;;;5.50;2.70;;;;;;;21.12;37.59;95650.94;4995774;28;20105;-63
2022/04/23 06:32:39;;;;;;;5.30;2.88;;;;;;;20.92;37.91;95649.19;4995699;28;20076;-64
2022/04/23 06:35:09;;;;;;;5.70;2.50;;;;;;;20.73;38.15;95654.53;4995557;28;20022;-63
2022/04/23 06:37:44;;;;;;;6.03;3.17;;;;;;;20.79;38.45;95643.34;4995547;28;20093;-61
2022/04/23 06:40:11;;;;;;;6.20;2.78;;;;;;;20.66;39.09;95646.31;4975832;28;339950;-62
2022/04/23 06:42:38;;;;;;;9.65;2.88;;;;;;;20.70;38.90;95645.03;4971118;28;20042;-63
2022/04/23 06:45:05;;;;;;;9.73;2.70;;;;;;;20.70;39.61;95643.22;4996734;28;20038;-63
2022/04/23 06:47:31;;;;;;;5.03;2.70;;;;;;;20.64;38.94;95640.28;4996689;28;20080;-63
2022/04/23 06:50:00;;;;;;;4.18;2.53;;;;;;;20.96;39.20;95645.25;4996683;28;20473;-62
2022/04/23 06:52:27;;;;;;;3.97;2.15;;;;;;;20.69;38.24;95638.91;4996475;28;20432;-62
2022/04/23 06:54:54;;;;;;;9.32;2.67;;;;;;;20.53;39.74;95644.78;4996459;28;20018;-63
2022/04/23 06:57:24;;;;;;;6.53;2.70;;;;;;;20.62;38.88;95645.75;4996297;28;20038;-63
2022/04/23 06:59:51;;;;;;;4.25;2.58;;;;;;;20.75;39.73;95639.31;4996312;28;20030;-64
2022/04/23 07:02:18;;;;;;;4.85;2.85;;;;;;;20.59;39.10;95638.09;4996406;28;20058;-64
2022/04/23 07:04:44;;;;;;;4.28;2.85;;;;;;;20.69;39.83;95640.72;4996389;28;20065;-65
2022/04/23 07:07:12;;;;;;;4.72;2.70;;;;;;;20.79;40.57;95640.69;4996250;28;20062;-65
2022/04/23 07:09:38;;;;;;;7.53;3.10;;;;;;;20.99;40.88;95644.16;4996214;28;20038;-62
2022/04/23 07:12:05;;;;;;;6.90;2.40;;;;;;;21.31;39.96;95650.88;4996170;28;20018;-64
2022/04/23 07:14:32;;;;;;;3.78;2.35;;;;;;;21.34;38.92;95655.06;4996063;28;20077;-62
2022/04/23 07:16:59;;;;;;;3.97;2.63;;;;;;;21.18;40.57;95659.19;4978701;28;20084;-64
2022/04/23 07:19:25;;;;;;;5.25;2.75;;;;;;;21.24;38.86;95664.91;4996121;28;20033;-64
2022/04/23 07:21:51;;;;;;;3.20;2.58;;;;;;;21.28;38.96;95660.97;4995992;28;20428;-64
2022/04/23 07:24:17;;;;;;;6.72;2.65;;;;;;;21.25;39.42;95661.28;4995863;28;20026;-61
2022/04/23 07:26:43;;;;;;;4.55;2.38;;;;;;;21.16;39.52;95663.00;4995857;28;20069;-63
2022/04/23 07:29:11;;;;;;;3.75;2.55;;;;;;;20.96;39.14;95658.56;4995936;28;20026;-64
2022/04/23 07:31:38;;;;;;;4.57;2.70;;;;;;;21.31;39.55;95666.81;4995801;28;20038;-62
2022/04/23 07:39:36;;;;;;;8.73;2.40;;;;;;;21.64;37.03;95665.56;4995273;28;20045;-65
2022/04/23 07:42:05;;;;;;;4.90;2.38;;;;;;;21.92;36.03;95669.06;4995809;28;20389;-61
2022/04/23 07:44:34;;;;;;;8.13;2.72;;;;;;;21.94;37.45;95672.38;4995685;28;20029;-62
2022/04/23 07:47:01;;;;;;;7.63;2.55;;;;;;;22.08;36.58;95672.84;4995516;28;20089;-62
2022/04/23 07:49:27;;;;;;;5.65;2.42;;;;;;;22.37;36.26;95685.09;4995514;28;20464;-64
2022/04/23 07:51:53;;;;;;;7.53;2.45;;;;;;;22.67;35.32;95676.88;4995401;28;20080;-61
2022/04/23 07:54:19;;;;;;;6.10;2.50;;;;;;;22.51;39.33;95674.91;4995457;28;20019;-65
2022/04/23 07:56:44;;;;;;;7.20;2.70;;;;;;;22.45;35.22;95674.50;4995482;28;20515;-63
2022/04/23 07:59:11;;;;;;;4.80;2.00;;;;;;;22.46;36.28;95667.38;4995264;28;20038;-65
2022/04/23 08:01:37;;;;;;;4.10;2.38;;;;;;;22.46;35.07;95667.38;4995262;28;20453;-64
2022/04/23 08:04:03;;;;;;;4.30;2.47;;;;;;;22.65;35.35;95671.69;4995182;28;20018;-65
2022/04/23 08:06:30;;;;;;;7.55;2.42;;;;;;;23.01;37.70;95676.09;4995119;28;20392;-65
2022/04/23 08:08:56;;;;;;;5.93;2.35;;;;;;;23.24;36.95;95670.22;4995133;28;20030;-64
2022/04/23 08:11:22;;;;;;;7.45;2.33;;;;;;;23.46;33.73;95665.34;4995147;28;20109;-64
2022/04/23 08:13:50;;;;;;;5.63;2.60;;;;;;;23.61;36.22;95662.91;4995054;28;20034;-66
2022/04/23 08:16:16;;;;;;;4.65;2.70;;;;;;;23.68;36.75;95663.06;4994943;28;20031;-62
2022/04/23 08:18:43;;;;;;;4.72;2.15;;;;;;;24.19;36.55;95664.88;4994973;28;20026;-63
2022/04/23 08:21:09;;;;;;;3.75;1.90;;;;;;;24.20;36.18;95658.56;4995204;28;20097;-65
2022/04/23 08:23:34;;;;;;;4.40;2.38;;;;;;;24.43;36.18;95666.75;4994796;28;20473;-63
2022/04/23 08:26:05;;;;;;;6.22;2.50;;;;;;;24.69;33.73;95660.38;4994734;28;20137;-66
2022/04/23 08:31:16;;;;;;;5.90;2.25;;;;;;;24.71;36.81;95665.56;4995110;28;19921;-63
2022/04/23 08:36:30;;;;;;;5.35;2.38;;;;;;;24.99;33.91;95665.22;4994744;28;20042;-64
2022/04/23 08:38:59;;;;;;;3.75;1.92;;;;;;;25.00;31.56;95672.22;4994541;28;20054;-66
2022/04/23 08:41:30;;;;;;;6.10;2.30;;;;;;;25.08;30.62;95672.19;4994270;28;20050;-64
2022/04/23 08:44:07;;;;;;;7.03;2.20;;;;;;;25.05;31.12;95669.88;4994616;28;20033;-63
2022/04/23 08:46:39;;;;;;;4.68;2.30;;;;;;;25.17;32.76;95672.19;4994586;28;20113;-65
2022/04/23 08:49:17;;;;;;;5.68;2.50;;;;;;;24.94;35.28;95667.56;4994506;28;20105;-61
2022/04/23 08:51:56;;;;;;;10.05;2.78;;;;;;;24.83;35.82;95671.41;4993815;28;20022;-64
2022/04/23 08:54:23;;;;;;;5.97;2.50;;;;;;;24.77;36.51;95669.41;4994161;28;20073;-63
2022/04/23 08:56:50;;;;;;;7.30;2.88;;;;;;;24.80;35.86;95664.53;4993350;28;20043;-64
2022/04/23 08:59:20;;;;;;;4.30;2.72;;;;;;;24.59;36.84;95665.06;4976875;28;20100;-60
2022/04/23 09:01:46;;;;;;;4.80;2.67;;;;;;;24.70;35.18;95667.41;4994121;28;20105;-64
2022/04/23 09:04:12;;;;;;;6.43;2.92;;;;;;;24.96;36.40;95670.91;4994265;28;20026;-63
2022/04/23 09:06:40;;;;;;;6.57;2.55;;;;;;;24.93;34.42;95664.06;4994086;28;20030;-64
2022/04/23 09:09:17;;;;;;;5.20;2.50;;;;;;;25.04;34.30;95662.03;4993881;28;20624;-63
2022/04/23 09:11:56;;;;;;;5.70;2.53;;;;;;;24.78;32.94;95652.34;4994209;28;20109;-66
2022/04/23 09:14:33;;;;;;;12.30;2.90;;;;;;;24.20;36.90;95654.03;4994047;28;20085;-64
2022/04/23 09:25:43;;;;;;;4.72;2.60;;;;;;;24.20;39.30;95655.88;4994001;28;20408;-63
2022/04/23 09:28:19;;;;;;;5.22;2.90;;;;;;;24.13;40.31;95655.69;4993808;28;20026;-66
2022/04/23 09:30:50;;;;;;;4.88;2.40;;;;;;;23.70;39.36;95663.75;4993755;28;20044;-64
2022/04/23 09:33:17;;;;;;;8.25;2.90;;;;;;;23.81;39.47;95665.28;4993936;28;20034;-64
2022/04/23 09:35:59;;;;;;;5.57;3.05;;;;;;;23.57;41.29;95664.22;4993697;28;20029;-65
2022/04/23 09:38:26;;;;;;;4.75;3.17;;;;;;;23.26;40.62;95665.56;4993809;28;20042;-63
2022/04/23 09:40:57;;;;;;;6.80;2.72;;;;;;;23.29;40.91;95664.38;4993298;28;20096;-63
2022/04/23 09:43:32;;;;;;;4.93;2.45;;;;;;;23.09;41.10;95665.47;4993684;28;20023;-65
2022/04/23 09:46:00;;;;;;;6.72;2.28;;;;;;;22.93;40.66;95657.38;4993833;28;20030;-64
2022/04/23 09:48:26;;;;;;;7.25;2.75;;;;;;;23.06;39.25;95659.63;4993759;28;20388;-64
2022/04/23 09:50:52;;;;;;;5.35;2.83;;;;;;;23.20;39.79;95663.50;4993682;28;20073;-63
2022/04/23 09:53:20;;;;;;;5.22;3.25;;;;;;;23.41;38.86;95667.63;4993709;28;20061;-64
2022/04/23 09:55:50;;;;;;;3.28;2.40;;;;;;;23.25;37.41;95663.03;4993485;28;20019;-65
2022/04/23 09:58:17;;;;;;;9.57;2.53;;;;;;;23.18;39.61;95658.34;4993571;28;20044;-60
2022/04/23 10:00:50;;;;;;;4.85;2.45;;;;;;;23.33;40.85;95663.91;4993470;28;20366;-62
2022/04/23 10:03:34;;;;;;;6.07;2.70;;;;;;;23.60;40.26;95662.06;4962173;28;20043;-61
2022/04/23 10:06:02;;;;;;;4.28;2.47;;;;;;;23.69;39.65;95662.09;4996489;28;20503;-65
2022/04/23 10:08:30;;;;;;;4.20;2.60;;;;;;;23.59;38.62;95665.72;4994673;28;20038;-63
2022/04/23 10:11:08;;;;;;;7.55;3.05;;;;;;;23.71;39.91;95660.94;4997258;28;20369;-63
2022/04/23 10:13:34;;;;;;;5.65;2.50;;;;;;;24.10;40.17;95659.50;4997357;28;20444;-65
2022/04/23 10:16:03;;;;;;;8.45;3.00;;;;;;;24.27;37.87;95654.22;4997328;28;20026;-64
2022/04/23 10:18:29;;;;;;;7.90;2.60;;;;;;;24.33;37.11;95661.56;4997168;28;20030;-62
2022/04/23 10:20:59;;;;;;;7.72;3.20;;;;;;;24.13;37.87;95657.50;4997250;28;20110;-64
2022/04/23 10:23:42;;;;;;;9.73;3.38;;;;;;;24.06;39.86;95651.97;4997397;28;20089;-64
2022/04/23 10:26:48;;;;;;;5.72;2.60;;;;;;;24.06;38.86;95655.50;4997151;28;20030;-63
2022/04/23 10:29:20;;;;;;;4.10;2.75;;;;;;;24.34;38.92;95652.53;4994079;28;20035;-64
2022/04/23 10:32:08;;;;;;;6.05;2.55;;;;;;;24.68;37.93;95649.88;4996918;28;20088;-64
2022/04/23 10:34:35;;;;;;;6.35;2.70;;;;;;;24.82;36.76;95651.84;4996916;28;20037;-64
2022/04/23 10:37:27;;;;;;;4.72;2.25;;;;;;;25.01;37.21;95647.13;4996871;28;20026;-63
2022/04/23 10:39:52;;;;;;;7.93;2.50;;;;;;;25.17;36.83;95651.63;4996826;28;20047;-65
2022/04/23 10:42:23;;;;;;;5.97;2.78;;;;;;;25.24;38.11;95641.91;4996813;28;20034;-62
2022/04/23 10:45:06;;;;;;;8.73;2.80;;;;;;;24.97;36.37;95646.66;4996834;28;20027;-65
2022/04/23 10:47:35;;;;;;;4.32;2.30;;;;;;;25.09;37.79;95644.47;4996717;28;20104;-62
2022/04/23 10:50:22;;;;;;;6.80;2.42;;;;;;;24.90;36.95;95642.16;4996703;28;20600;-63
2022/04/23 10:52:50;;;;;;;6.85;2.25;;;;;;;24.43;37.09;95645.34;4996676;28;20038;-62
2022/04/23 10:55:21;;;;;;;8.23;2.53;;;;;;;23.97;36.07;95640.47;4996409;28;20125;-62
2022/04/23 10:58:07;;;;;;;5.30;2.80;;;;;;;23.69;35.99;95651.41;4996355;28;20132;-62
2022/04/23 11:00:43;;;;;;;9.02;2.75;;;;;;;23.60;35.69;95647.91;4994785;28;20066;-63
2022/04/23 11:03:10;;;;;;;7.68;2.90;;;;;;;23.41;37.65;95649.81;4996550;28;20065;-65
2022/04/23 11:14:47;;;;;;;6.22;2.97;;;;;;;22.81;38.41;95651.47;4995741;28;20042;-63
2022/04/23 11:17:35;;;;;;;6.47;3.00;;;;;;;22.47;40.23;95651.22;4996201;28;20034;-64
2022/04/23 11:20:01;;;;;;;8.02;2.78;;;;;;;22.34;41.34;95645.47;4996234;28;20044;-65
2022/04/23 11:22:27;;;;;;;5.38;2.92;;;;;;;22.40;41.82;95655.50;4996163;28;20023;-65
2022/04/23 11:24:55;;;;;;;6.15;3.17;;;;;;;22.33;41.00;95655.25;4995799;28;20077;-63
2022/04/23 11:27:29;;;;;;;4.85;2.60;;;;;;;22.32;41.52;95655.41;4996005;28;20041;-62
2022/04/23 11:29:56;;;;;;;5.20;2.83;;;;;;;22.26;40.06;95664.00;4995934;28;20022;-62
2022/04/23 11:32:29;;;;;;;5.55;2.67;;;;;;;22.05;39.88;95657.19;4995767;28;20473;-65
2022/04/23 11:34:57;;;;;;;6.25;3.20;;;;;;;21.69;42.01;95652.63;4995949;28;20070;-62
2022/04/23 11:37:36;;;;;;;8.60;2.88;;;;;;;21.44;42.03;95658.53;4995740;28;20416;-63
2022/04/23 11:40:13;;;;;;;7.72;3.15;;;;;;;21.20;43.54;95664.38;4995899;28;20050;-65
2022/04/23 11:42:42;;;;;;;6.07;2.55;;;;;;;21.23;42.85;95658.75;4995682;28;20109;-61
2022/04/23 11:45:11;;;;;;;6.25;2.50;;;;;;;21.17;42.08;95662.00;4995767;28;20046;-63
2022/04/23 11:47:38;;;;;;;7.15;3.10;;;;;;;21.24;42.09;95667.56;4995508;28;20057;-63
2022/04/23 11:50:11;;;;;;;5.90;2.70;;;;;;;21.22;43.34;95662.38;4995632;28;20105;-61
2022/04/23 11:52:43;;;;;;;7.78;3.03;;;;;;;21.21;41.78;95661.56;4995495;28;20034;-63
2022/04/23 11:55:21;;;;;;;9.07;2.80;;;;;;;21.10;42.18;95659.06;4995557;28;20070;-64
2022/04/23 11:57:58;;;;;;;6.43;3.03;;;;;;;21.00;41.81;95653.81;4995285;28;20113;-60
2022/04/23 12:00:25;;;;;;;4.95;2.50;;;;;;;20.93;42.25;95645.59;4995228;28;20014;-61
2022/04/23 12:02:52;;;;;;;4.45;3.05;;;;;;;20.92;43.32;95651.03;4995339;28;20062;-61
2022/04/23 12:05:23;;;;;;;5.10;2.75;;;;;;;20.77;43.42;95659.41;4995334;28;20030;-63
2022/04/23 12:07:50;;;;;;;6.35;2.60;;;;;;;20.80;42.85;95659.13;4995271;28;20392;-64
2022/04/23 12:10:22;;;;;;;7.20;3.58;;;;;;;20.91;43.29;95666.13;4995278;28;20077;-65